Time;durP1;ratioP1;P1;durP2;ratioP2;P2;SDS_P1;SDS_P2;PMS_P1;PMS_P2;Temp;Humidity;BMP_temperature;BMP_pressure;BME280_temperature;BME280_humidity;BME280_pressure;Samples;Min_cycle;Max_cycle;Signal;HPM_P1;HPM_P2
2022/09/14 00:01:54;;;;;;;3.13;1.55;;;;;;;;;;4999402;28;20061;-68
2022/09/14 00:04:21;;;;;;;5.20;1.45;;;;;;;;;;5033094;28;20049;-68
2022/09/14 00:06:48;;;;;;;3.65;1.60;;;;;;;;;;5032720;28;20417;-68
2022/09/14 00:09:17;;;;;;;2.05;1.45;;;;;;;;;;5033009;28;20053;-69
2022/09/14 00:11:44;;;;;;;2.75;1.35;;;;;;;;;;5032880;28;20508;-69
2022/09/14 00:14:11;;;;;;;2.25;1.50;;;;;;;;;;5033193;28;20107;-69
2022/09/14 00:16:39;;;;;;;2.10;1.10;;;;;;;;;;5033152;28;20073;-68
2022/09/14 00:19:12;;;;;;;4.50;1.75;;;;;;;;;;5032586;28;20155;-69
2022/09/14 00:21:41;;;;;;;1.50;1.40;;;;;;;;;;5032881;28;20057;-69
2022/09/14 00:24:09;;;;;;;2.60;1.45;;;;;;;;;;5032735;28;20053;-69
2022/09/14 00:26:36;;;;;;;1.67;1.40;;;;;;;;;;5022120;28;20061;-69
2022/09/14 00:29:04;;;;;;;2.25;1.20;;;;;;;;;;5034651;28;20057;-69
2022/09/14 00:31:35;;;;;;;2.53;1.30;;;;;;;;;;5033845;28;20049;-69
2022/09/14 00:34:03;;;;;;;3.45;1.85;;;;;;;;;;5034264;28;20405;-68
2022/09/14 00:36:30;;;;;;;2.08;1.90;;;;;;;;;;5034529;28;20049;-68
2022/09/14 00:38:59;;;;;;;2.28;1.40;;;;;;;;;;5034678;28;20111;-69
2022/09/14 00:41:32;;;;;;;3.25;1.40;;;;;;;;;;5034257;28;20053;-68
2022/09/14 00:44:00;;;;;;;;;;;;;;;;;;5035665;28;20136;-69
2022/09/14 00:46:29;;;;;;;5.07;1.98;;;;;;;;;;5033863;28;19924;-69
2022/09/14 00:48:59;;;;;;;2.65;2.25;;;;;;;;;;5053660;28;20033;-69
2022/09/14 00:51:27;;;;;;;3.72;1.80;;;;;;;;;;5054471;28;20033;-71
2022/09/14 00:53:54;;;;;;;2.08;1.70;;;;;;;;;;5038006;28;20049;-69
2022/09/14 00:56:20;;;;;;;1.48;1.38;;;;;;;;;;5021340;28;20025;-69
2022/09/14 00:58:49;;;;;;;2.25;1.65;;;;;;;;;;5055290;28;20045;-69
2022/09/14 01:01:16;;;;;;;2.72;1.80;;;;;;;;;;5039903;28;20089;-70
2022/09/14 01:03:43;;;;;;;2.45;1.52;;;;;;;;;;5040727;28;20046;-69
2022/09/14 01:06:19;;;;;;;2.97;1.65;;;;;;;;;;5057507;28;20060;-68
2022/09/14 01:08:58;;;;;;;5.10;2.10;;;;;;;;;;5041261;28;20080;-69
2022/09/14 01:11:32;;;;;;;3.60;1.80;;;;;;;;;;5057322;28;20067;-68
2022/09/14 01:14:02;;;;;;;2.47;1.83;;;;;;;;;;5057426;28;20056;-69
2022/09/14 01:16:38;;;;;;;2.38;1.90;;;;;;;;;;5057196;28;20073;-69
2022/09/14 01:19:36;;;;;;;2.78;1.60;;;;;;;;;;5041132;28;20048;-69
2022/09/14 01:22:08;;;;;;;2.90;1.60;;;;;;;;;;5043036;28;20095;-69
2022/09/14 01:24:45;;;;;;;3.03;1.95;;;;;;;;;;5040872;28;20049;-69
2022/09/14 01:27:23;;;;;;;4.22;1.50;;;;;;;;;;5040627;28;20032;-69
2022/09/14 01:30:11;;;;;;;2.03;1.70;;;;;;;;;;5057019;28;20068;-69
2022/09/14 01:32:49;;;;;;;4.38;1.80;;;;;;;;;;5019902;28;20100;-69
2022/09/14 01:35:30;;;;;;;2.95;1.98;;;;;;;;;;5015926;28;20517;-69
2022/09/14 01:38:00;;;;;;;2.17;1.80;;;;;;;;;;4999791;28;20056;-68
2022/09/14 01:40:38;;;;;;;6.13;2.33;;;;;;;;;;5015374;28;20053;-70
2022/09/14 01:43:15;;;;;;;7.90;3.70;;;;;;;;;;5017022;28;20131;-72
2022/09/14 01:45:45;;;;;;;7.82;3.47;;;;;;;;;;4999320;28;20133;-72
2022/09/14 01:48:12;;;;;;;8.65;3.10;;;;;;;;;;4999569;28;20099;-71
2022/09/14 01:50:44;;;;;;;8.15;2.83;;;;;;;;;;4998963;28;20057;-71
2022/09/14 01:53:22;;;;;;;7.15;2.58;;;;;;;;;;5015596;28;20217;-71
2022/09/14 01:55:55;;;;;;;3.40;2.13;;;;;;;;;;5015175;28;20049;-71
2022/09/14 01:58:35;;;;;;;9.38;3.88;;;;;;;;;;5018020;28;20546;-71
2022/09/14 02:01:03;;;;;;;10.52;2.70;;;;;;;;;;5018725;28;20103;-71
2022/09/14 02:03:34;;;;;;;7.90;2.28;;;;;;;;;;5018560;28;20061;-71
2022/09/14 02:06:23;;;;;;;4.97;2.83;;;;;;;;;;5036160;28;20195;-71
2022/09/14 02:08:50;;;;;;;7.60;2.92;;;;;;;;;;5020648;28;20098;-71
2022/09/14 02:11:16;;;;;;;9.77;2.40;;;;;;;;;;5001745;28;20053;-71
2022/09/14 02:13:43;;;;;;;4.30;2.20;;;;;;;;;;5035525;28;20103;-71
2022/09/14 02:16:10;;;;;;;6.53;3.40;;;;;;;;;;5018057;28;20077;-71
2022/09/14 02:18:37;;;;;;;5.13;2.65;;;;;;;;;;5035263;28;20053;-70
2022/09/14 02:21:19;;;;;;;7.00;2.97;;;;;;;;;;5017898;28;20096;-70
2022/09/14 02:23:47;;;;;;;9.57;3.28;;;;;;;;;;5035528;28;20099;-70
2022/09/14 02:26:14;;;;;;;8.65;3.10;;;;;;;;;;5018092;28;20543;-70
2022/09/14 02:28:41;;;;;;;6.88;2.95;;;;;;;;;;5017413;28;20127;-71
2022/09/14 02:31:26;;;;;;;5.03;2.70;;;;;;;;;;5017617;28;20045;-71
2022/09/14 02:34:24;;;;;;;6.50;2.72;;;;;;;;;;5035278;28;20046;-71
2022/09/14 02:37:01;;;;;;;8.63;3.80;;;;;;;;;;5003874;28;20076;-71
2022/09/14 02:39:55;;;;;;;5.03;3.17;;;;;;;;;;5017451;28;20068;-70
2022/09/14 02:42:27;;;;;;;8.25;3.25;;;;;;;;;;5034748;28;20049;-70
2022/09/14 02:45:17;;;;;;;6.15;3.35;;;;;;;;;;5034707;28;20467;-70
2022/09/14 02:47:59;;;;;;;4.82;3.47;;;;;;;;;;5017314;28;20493;-71
2022/09/14 02:50:46;;;;;;;6.43;3.05;;;;;;;;;;5034626;28;20119;-70
2022/09/14 02:53:18;;;;;;;6.95;2.85;;;;;;;;;;5018415;28;20049;-71
2022/09/14 02:55:52;;;;;;;3.15;2.40;;;;;;;;;;5034839;28;20511;-71
2022/09/14 02:58:19;;;;;;;5.20;3.22;;;;;;;;;;5000683;28;20041;-71
2022/09/14 03:00:47;;;;;;;5.35;3.80;;;;;;;;;;5034569;28;20061;-70
2022/09/14 03:03:17;;;;;;;6.75;3.55;;;;;;;;;;5034575;28;20050;-71
2022/09/14 03:05:43;;;;;;;5.45;3.20;;;;;;;;;;5017024;28;20099;-70
2022/09/14 03:08:11;;;;;;;4.95;3.50;;;;;;;;;;5034274;28;20089;-71
2022/09/14 03:10:40;;;;;;;7.78;3.63;;;;;;;;;;5033422;28;20504;-70
2022/09/14 03:13:06;;;;;;;4.75;3.67;;;;;;;;;;5017264;28;20436;-70
2022/09/14 03:15:33;;;;;;;6.00;3.42;;;;;;;;;;5034303;28;20053;-70
2022/09/14 03:18:00;;;;;;;8.65;3.70;;;;;;;;;;5000352;28;20532;-70
2022/09/14 03:20:28;;;;;;;6.55;3.53;;;;;;;;;;5033847;28;20095;-70
2022/09/14 03:22:54;;;;;;;4.85;3.53;;;;;;;;;;5034207;28;20052;-70
2022/09/14 03:25:24;;;;;;;5.68;3.60;;;;;;;;;;5000296;28;20112;-70
2022/09/14 03:27:53;;;;;;;5.68;3.50;;;;;;;;;;5033559;28;20457;-70
2022/09/14 03:30:20;;;;;;;7.93;4.10;;;;;;;;;;5033789;28;20049;-70
2022/09/14 03:32:47;;;;;;;5.40;3.90;;;;;;;;;;5033892;28;20057;-70
2022/09/14 03:35:14;;;;;;;4.95;3.90;;;;;;;;;;5033948;28;20049;-70
2022/09/14 03:37:42;;;;;;;6.05;3.97;;;;;;;;;;5033783;28;20092;-70
2022/09/14 03:40:10;;;;;;;6.28;4.00;;;;;;;;;;5016334;28;20100;-70
2022/09/14 03:42:41;;;;;;;5.30;4.43;;;;;;;;;;5033583;28;20496;-70
2022/09/14 03:45:08;;;;;;;5.63;4.75;;;;;;;;;;5033597;28;20053;-70
2022/09/14 03:47:34;;;;;;;8.80;4.45;;;;;;;;;;5033508;28;20045;-70
2022/09/14 03:50:01;;;;;;;7.13;4.70;;;;;;;;;;5033442;28;20081;-70
2022/09/14 03:52:28;;;;;;;6.05;4.30;;;;;;;;;;5033446;28;20081;-71
2022/09/14 03:54:54;;;;;;;8.18;5.30;;;;;;;;;;5016021;28;20463;-70
2022/09/14 03:57:21;;;;;;;9.85;6.07;;;;;;;;;;5033462;28;20045;-70
2022/09/14 03:59:48;;;;;;;11.85;6.95;;;;;;;;;;5032869;28;20049;-70
2022/09/14 04:02:14;;;;;;;13.60;7.68;;;;;;;;;;5015376;28;20103;-70
2022/09/14 04:04:41;;;;;;;15.60;8.88;;;;;;;;;;5033117;28;20129;-70
2022/09/14 04:07:08;;;;;;;11.57;6.93;;;;;;;;;;5033073;28;20049;-70
2022/09/14 04:09:34;;;;;;;9.00;6.30;;;;;;;;;;5015273;28;20049;-70
2022/09/14 04:12:01;;;;;;;16.42;6.72;;;;;;;;;;5032714;28;20049;-70
2022/09/14 04:14:28;;;;;;;7.75;5.63;;;;;;;;;;5032885;28;20134;-70
2022/09/14 04:16:54;;;;;;;10.88;6.32;;;;;;;;;;5032956;28;20503;-70
2022/09/14 04:19:21;;;;;;;10.13;7.00;;;;;;;;;;5032553;28;20100;-70
2022/09/14 04:21:48;;;;;;;9.95;6.88;;;;;;;;;;5032780;28;20076;-70
2022/09/14 04:24:14;;;;;;;10.70;7.00;;;;;;;;;;5032669;28;20089;-70
2022/09/14 04:26:43;;;;;;;15.45;8.93;;;;;;;;;;5032477;28;20523;-70
2022/09/14 04:29:09;;;;;;;12.20;8.05;;;;;;;;;;5031989;28;20480;-70
2022/09/14 04:31:36;;;;;;;13.20;7.40;;;;;;;;;;5032324;28;20050;-70
2022/09/14 04:34:03;;;;;;;11.48;7.72;;;;;;;;;;5032664;28;20481;-70
2022/09/14 04:36:30;;;;;;;8.95;7.22;;;;;;;;;;5031308;28;20049;-70
2022/09/14 04:38:59;;;;;;;11.65;7.35;;;;;;;;;;5032222;28;20088;-70
2022/09/14 04:41:26;;;;;;;9.80;6.97;;;;;;;;;;5031963;28;20103;-70
2022/09/14 04:43:53;;;;;;;9.23;6.35;;;;;;;;;;5032035;28;20546;-70
2022/09/14 04:46:22;;;;;;;11.43;6.97;;;;;;;;;;5032172;28;20053;-70
2022/09/14 04:48:49;;;;;;;11.93;7.10;;;;;;;;;;5031828;28;20053;-70
2022/09/14 04:51:21;;;;;;;10.02;6.60;;;;;;;;;;5032014;28;20049;-70
2022/09/14 04:53:50;;;;;;;13.55;7.57;;;;;;;;;;5032244;28;20084;-71
2022/09/14 04:56:18;;;;;;;7.68;6.45;;;;;;;;;;5031744;28;20053;-70
2022/09/14 04:58:46;;;;;;;12.23;6.18;;;;;;;;;;5031906;28;20049;-70
2022/09/14 05:01:24;;;;;;;7.28;5.40;;;;;;;;;;5032042;28;20478;-70
2022/09/14 05:03:52;;;;;;;10.30;6.05;;;;;;;;;;5032286;28;20072;-70
2022/09/14 05:06:20;;;;;;;8.30;6.50;;;;;;;;;;5031965;28;20096;-70
2022/09/14 05:08:47;;;;;;;10.13;5.53;;;;;;;;;;5013915;28;20093;-70
2022/09/14 05:11:17;;;;;;;8.02;6.03;;;;;;;;;;5031819;28;20111;-70
2022/09/14 05:13:43;;;;;;;7.25;6.10;;;;;;;;;;5031763;28;20049;-70
2022/09/14 05:16:21;;;;;;;8.40;6.05;;;;;;;;;;5031999;28;20496;-70
2022/09/14 05:18:48;;;;;;;10.25;6.07;;;;;;;;;;5031594;28;20049;-70
2022/09/14 05:21:17;;;;;;;7.93;6.18;;;;;;;;;;5031585;28;20100;-70
2022/09/14 05:23:44;;;;;;;9.40;6.70;;;;;;;;;;5031916;28;20049;-70
2022/09/14 05:26:11;;;;;;;10.80;7.25;;;;;;;;;;5032122;28;20046;-70
2022/09/14 05:28:38;;;;;;;10.98;7.70;;;;;;;;;;5031381;28;20092;-70
2022/09/14 05:31:09;;;;;;;10.35;8.00;;;;;;;;;;5031571;28;20053;-70
2022/09/14 05:33:36;;;;;;;10.73;8.52;;;;;;;;;;5016985;28;20516;-70
2022/09/14 05:36:05;;;;;;;13.55;8.43;;;;;;;;;;5035666;28;20115;-70
2022/09/14 05:38:33;;;;;;;10.18;8.60;;;;;;;;;;5035325;28;20048;-70
2022/09/14 05:41:00;;;;;;;10.73;7.75;;;;;;;;;;5035511;28;20376;-70
2022/09/14 05:43:27;;;;;;;9.63;8.30;;;;;;;;;;5035682;28;20077;-70
2022/09/14 05:45:54;;;;;;;11.27;9.32;;;;;;;;;;5035373;28;20049;-70
2022/09/14 05:48:21;;;;;;;10.75;8.57;;;;;;;;;;5035009;28;20081;-70
2022/09/14 05:50:47;;;;;;;9.93;8.05;;;;;;;;;;5057941;23;20095;-69
2022/09/14 05:53:14;;;;;;;12.50;8.35;;;;;;;;;;5035080;28;20041;-69
2022/09/14 05:55:40;;;;;;;9.57;8.50;;;;;;;;;;5036049;28;20496;-69
2022/09/14 05:58:07;;;;;;;10.25;8.73;;;;;;;;;;5035174;28;20080;-69
2022/09/14 06:00:34;;;;;;;10.30;8.68;;;;;;;;;;5035290;28;20049;-69
2022/09/14 06:03:01;;;;;;;10.30;9.27;;;;;;;;;;5034867;28;20503;-67
2022/09/14 06:05:27;;;;;;;9.85;8.15;;;;;;;;;;5035058;28;20107;-66
2022/09/14 06:07:54;;;;;;;11.68;8.65;;;;;;;;;;5034624;28;20053;-67
2022/09/14 06:10:21;;;;;;;12.57;9.07;;;;;;;;;;5034828;28;20041;-68
2022/09/14 06:12:48;;;;;;;12.05;8.35;;;;;;;;;;5017262;28;20099;-67
2022/09/14 06:15:23;;;;;;;9.82;8.70;;;;;;;;;;5034600;28;20496;-68
2022/09/14 06:17:50;;;;;;;10.15;8.32;;;;;;;;;;5034824;28;20107;-67
2022/09/14 06:20:17;;;;;;;9.23;8.00;;;;;;;;;;5034690;28;20045;-67
2022/09/14 06:22:44;;;;;;;11.48;9.27;;;;;;;;;;5034605;28;20103;-67
2022/09/14 06:25:10;;;;;;;17.25;9.48;;;;;;;;;;5034681;28;20427;-67
2022/09/14 06:27:37;;;;;;;16.98;9.70;;;;;;;;;;5034445;28;20050;-67
2022/09/14 06:30:04;;;;;;;10.63;8.55;;;;;;;;;;5034004;28;20076;-67
2022/09/14 06:32:31;;;;;;;14.60;8.30;;;;;;;;;;5034585;28;20463;-68
2022/09/14 06:34:57;;;;;;;13.70;9.27;;;;;;;;;;5034661;28;20049;-67
2022/09/14 06:37:24;;;;;;;10.82;8.40;;;;;;;;;;5034328;28;20057;-68
2022/09/14 06:39:51;;;;;;;10.75;8.68;;;;;;;;;;5034220;28;20042;-67
2022/09/14 06:42:17;;;;;;;10.98;7.78;;;;;;;;;;5034177;28;20045;-68
2022/09/14 06:44:45;;;;;;;13.00;7.80;;;;;;;;;;5032889;28;20492;-68
2022/09/14 06:47:12;;;;;;;13.52;8.10;;;;;;;;;;5017066;28;20053;-68
2022/09/14 06:49:39;;;;;;;10.60;7.32;;;;;;;;;;5033900;28;20068;-68
2022/09/14 06:52:05;;;;;;;12.80;7.65;;;;;;;;;;5033751;28;20049;-69
2022/09/14 06:54:32;;;;;;;12.45;7.38;;;;;;;;;;5034120;28;20088;-68
2022/09/14 06:56:58;;;;;;;9.65;7.72;;;;;;;;;;5033785;28;20416;-68
2022/09/14 06:59:25;;;;;;;11.30;7.30;;;;;;;;;;5033578;28;20050;-68
2022/09/14 07:01:52;;;;;;;9.50;7.22;;;;;;;;;;5033757;28;20257;-69
2022/09/14 07:04:19;;;;;;;10.98;7.13;;;;;;;;;;5033731;28;20096;-69
2022/09/14 07:06:47;;;;;;;12.35;7.47;;;;;;;;;;5016297;28;20076;-69
2022/09/14 07:09:14;;;;;;;8.60;7.47;;;;;;;;;;5033396;28;20095;-68
2022/09/14 07:11:42;;;;;;;12.32;7.20;;;;;;;;;;5033536;28;20566;-68
2022/09/14 07:14:09;;;;;;;8.48;7.03;;;;;;;;;;5033657;28;20072;-67
2022/09/14 07:16:36;;;;;;;8.93;7.15;;;;;;;;;;5033753;28;20111;-68
2022/09/14 07:19:06;;;;;;;8.52;6.88;;;;;;;;;;5033384;28;20042;-68
2022/09/14 07:21:33;;;;;;;11.45;7.32;;;;;;;;;;5033402;28;20054;-69
2022/09/14 07:24:00;;;;;;;11.38;7.85;;;;;;;;;;5033318;28;20131;-68
2022/09/14 07:26:29;;;;;;;8.75;6.22;;;;;;;;;;5015952;28;20091;-67
2022/09/14 07:29:02;;;;;;;10.90;7.15;;;;;;;;;;5032973;28;20500;-69
2022/09/14 07:31:33;;;;;;;;;;;;;;;;;;5033749;28;20068;-68
2022/09/14 07:34:02;;;;;;;8.05;5.50;;;;;;;;;;5033242;28;19921;-68
2022/09/14 07:36:30;;;;;;;8.32;5.05;;;;;;;;;;5015871;28;20072;-69
2022/09/14 07:39:01;;;;;;;12.38;6.40;;;;;;;;;;5033460;28;20103;-68
2022/09/14 07:41:29;;;;;;;9.27;5.82;;;;;;;;;;5033282;28;20049;-68
2022/09/14 07:43:59;;;;;;;8.15;5.65;;;;;;;;;;5033147;28;20099;-67
2022/09/14 07:46:27;;;;;;;8.93;5.53;;;;;;;;;;5033133;28;20053;-68
2022/09/14 07:48:55;;;;;;;8.27;5.60;;;;;;;;;;5032658;28;20049;-68
2022/09/14 07:51:22;;;;;;;7.65;5.20;;;;;;;;;;5033024;28;20103;-68
2022/09/14 07:53:49;;;;;;;7.18;4.25;;;;;;;;;;5032991;28;20049;-68
2022/09/14 07:56:16;;;;;;;7.43;4.38;;;;;;;;;;5032597;28;20100;-68
2022/09/14 07:58:43;;;;;;;7.18;3.70;;;;;;;;;;5032666;28;20089;-68
2022/09/14 08:01:12;;;;;;;8.20;4.60;;;;;;;;;;5033005;28;20099;-67
2022/09/14 08:03:41;;;;;;;5.82;4.22;;;;;;;;;;5032645;28;20049;-69
2022/09/14 08:06:15;;;;;;;5.32;4.00;;;;;;;;;;5032813;28;20107;-69
2022/09/14 08:08:44;;;;;;;4.63;2.95;;;;;;;;;;5032664;28;20049;-68
2022/09/14 08:11:13;;;;;;;4.38;3.00;;;;;;;;;;5032478;28;20103;-67
2022/09/14 08:13:42;;;;;;;6.03;3.20;;;;;;;;;;5032441;28;20095;-68
2022/09/14 08:16:08;;;;;;;6.95;3.10;;;;;;;;;;5032364;28;20570;-67
2022/09/14 08:18:36;;;;;;;6.95;3.60;;;;;;;;;;5032165;28;20053;-67
2022/09/14 08:21:14;;;;;;;3.85;2.90;;;;;;;;;;5032635;28;20084;-68
2022/09/14 08:23:41;;;;;;;6.95;3.00;;;;;;;;;;5032479;28;20053;-67
2022/09/14 08:26:12;;;;;;;4.82;2.92;;;;;;;;;;5032291;28;20467;-69
2022/09/14 08:28:39;;;;;;;3.90;2.85;;;;;;;;;;5031865;28;20517;-67
2022/09/14 08:31:25;;;;;;;3.45;2.40;;;;;;;;;;5032307;28;20080;-68
2022/09/14 08:33:55;;;;;;;4.38;2.60;;;;;;;;;;5032133;28;20056;-67
2022/09/14 08:36:22;;;;;;;2.25;2.05;;;;;;;;;;5031964;28;20558;-69
2022/09/14 08:38:49;;;;;;;3.67;2.15;;;;;;;;;;5031854;28;20053;-68
2022/09/14 08:41:27;;;;;;;4.40;2.40;;;;;;;;;;5031827;28;20053;-68
2022/09/14 08:44:09;;;;;;;2.92;2.25;;;;;;;;;;5032148;28;20053;-68
2022/09/14 08:46:50;;;;;;;3.90;2.37;;;;;;;;;;5016775;28;20096;-68
2022/09/14 08:49:35;;;;;;;4.60;2.40;;;;;;;;;;5015368;28;20049;-67
2022/09/14 08:52:02;;;;;;;2.97;2.20;;;;;;;;;;5031917;28;20119;-68
2022/09/14 08:54:30;;;;;;;2.58;2.38;;;;;;;;;;5014438;28;20420;-67
2022/09/14 08:57:17;;;;;;;3.63;2.35;;;;;;;;;;5030668;28;20077;-66
2022/09/14 09:00:12;;;;;;;3.15;2.15;;;;;;;;;;4998015;28;20100;-67
2022/09/14 09:03:16;;;;;;;4.50;2.40;;;;;;;;;;5014567;28;20049;-68
2022/09/14 09:05:52;;;;;;;6.25;2.47;;;;;;;;;;5031729;28;20077;-67
2022/09/14 09:08:43;;;;;;;4.30;2.53;;;;;;;;;;5013927;28;20053;-67
2022/09/14 09:11:14;;;;;;;4.10;2.28;;;;;;;;;;5031457;28;20052;-68
2022/09/14 09:13:40;;;;;;;8.45;2.50;;;;;;;;;;5014886;28;20103;-67
2022/09/14 09:16:09;;;;;;;4.25;2.40;;;;;;;;;;4998019;28;20103;-68
2022/09/14 09:18:40;;;;;;;3.05;1.80;;;;;;;;;;5013978;28;20053;-67
2022/09/14 09:21:16;;;;;;;4.57;2.15;;;;;;;;;;5014061;28;20049;-67
2022/09/14 09:23:42;;;;;;;4.95;2.83;;;;;;;;;;5014488;28;20076;-67
2022/09/14 09:26:16;;;;;;;2.70;2.38;;;;;;;;;;5031682;28;20049;-68
2022/09/14 09:28:51;;;;;;;2.92;2.70;;;;;;;;;;5031398;28;20049;-68
2022/09/14 09:31:19;;;;;;;2.30;2.10;;;;;;;;;;5031236;28;20095;-67
2022/09/14 09:33:46;;;;;;;3.17;1.80;;;;;;;;;;5030144;28;20055;-68
2022/09/14 09:36:13;;;;;;;5.00;2.05;;;;;;;;;;4997938;28;20127;-68
2022/09/14 09:38:40;;;;;;;1.70;1.33;;;;;;;;;;4997475;28;20053;-67
2022/09/14 09:41:16;;;;;;;4.68;1.92;;;;;;;;;;5032339;28;20049;-68
2022/09/14 09:44:05;;;;;;;4.03;1.70;;;;;;;;;;4982196;28;20483;-67
2022/09/14 09:46:33;;;;;;;3.58;1.77;;;;;;;;;;5031655;28;20100;-68
2022/09/14 09:49:17;;;;;;;4.85;1.80;;;;;;;;;;5013554;28;20053;-68
2022/09/14 09:51:44;;;;;;;3.08;1.80;;;;;;;;;;5015750;28;20053;-68
2022/09/14 09:54:31;;;;;;;3.30;1.80;;;;;;;;;;5031301;28;20103;-68
2022/09/14 09:57:00;;;;;;;3.00;1.52;;;;;;;;;;4999053;28;20470;-68
2022/09/14 09:59:41;;;;;;;5.28;1.25;;;;;;;;;;5013771;28;20099;-67
2022/09/14 10:02:27;;;;;;;3.05;1.40;;;;;;;;;;5013729;28;20092;-68
2022/09/14 10:05:09;;;;;;;4.30;1.75;;;;;;;;;;5031203;28;20520;-68
2022/09/14 10:08:00;;;;;;;1.98;1.48;;;;;;;;;;5031352;28;20054;-68
2022/09/14 10:10:33;;;;;;;3.85;1.65;;;;;;;;;;5015615;28;20101;-66
2022/09/14 10:13:00;;;;;;;5.43;1.98;;;;;;;;;;5031082;28;20045;-67
2022/09/14 10:15:30;;;;;;;5.45;1.77;;;;;;;;;;4997577;28;20057;-68
2022/09/14 10:18:12;;;;;;;6.78;1.48;;;;;;;;;;5013863;28;20115;-69
2022/09/14 10:21:01;;;;;;;4.30;1.83;;;;;;;;;;5034636;28;20076;-68
2022/09/14 10:23:32;;;;;;;3.92;1.20;;;;;;;;;;5034370;28;20103;-68
2022/09/14 10:26:10;;;;;;;1.73;1.23;;;;;;;;;;5017619;28;20053;-69
2022/09/14 10:28:39;;;;;;;3.20;1.73;;;;;;;;;;5034395;28;20471;-67
2022/09/14 10:31:16;;;;;;;2.35;1.65;;;;;;;;;;5016914;28;20046;-68
2022/09/14 10:33:50;;;;;;;2.90;1.20;;;;;;;;;;5034221;28;20049;-67
2022/09/14 10:36:46;;;;;;;3.85;1.33;;;;;;;;;;5017229;28;20057;-68
2022/09/14 10:39:31;;;;;;;2.80;2.08;;;;;;;;;;5018950;28;20053;-67
2022/09/14 10:42:01;;;;;;;3.97;1.60;;;;;;;;;;5001194;28;20049;-68
2022/09/14 10:45:06;;;;;;;7.20;1.70;;;;;;;;;;5034167;28;20653;-68
2022/09/14 10:48:05;;;;;;;1.77;1.33;;;;;;;;;;5011179;28;20581;-68
2022/09/14 10:50:51;;;;;;;3.40;1.58;;;;;;;;;;5033812;28;20046;-67
2022/09/14 10:53:36;;;;;;;2.88;1.50;;;;;;;;;;5033972;28;20096;-68
2022/09/14 10:56:06;;;;;;;2.40;1.15;;;;;;;;;;5034069;28;20461;-67
2022/09/14 10:58:57;;;;;;;2.67;1.83;;;;;;;;;;5033677;28;20099;-67
2022/09/14 11:01:36;;;;;;;5.63;1.65;;;;;;;;;;5016382;28;20045;-68
2022/09/14 11:04:33;;;;;;;3.22;1.60;;;;;;;;;;5033831;28;20045;-67
2022/09/14 11:07:13;;;;;;;2.92;1.50;;;;;;;;;;5034306;28;20076;-68
2022/09/14 11:10:02;;;;;;;2.90;1.60;;;;;;;;;;5016570;28;20076;-67
2022/09/14 11:12:55;;;;;;;3.72;1.77;;;;;;;;;;5018858;28;20107;-68
2022/09/14 11:15:31;;;;;;;;;;;;;;;;;;5011217;28;20053;-68
2022/09/14 11:18:22;;;;;;;6.70;2.05;;;;;;;;;;5033398;28;19921;-67
2022/09/14 11:21:23;;;;;;;2.95;1.30;;;;;;;;;;5033431;28;20100;-67
2022/09/14 11:24:12;;;;;;;3.65;1.20;;;;;;;;;;5033472;28;20111;-67
2022/09/14 11:27:03;;;;;;;3.53;1.65;;;;;;;;;;5033645;28;20061;-67
2022/09/14 11:29:37;;;;;;;3.45;1.42;;;;;;;;;;5032692;28;20057;-68
2022/09/14 11:32:14;;;;;;;3.15;1.30;;;;;;;;;;5000075;28;20050;-69
2022/09/14 11:35:17;;;;;;;5.88;1.55;;;;;;;;;;5033330;28;20053;-67
2022/09/14 11:37:52;;;;;;;4.82;1.60;;;;;;;;;;5003578;28;20088;-68
2022/09/14 11:40:23;;;;;;;3.67;1.40;;;;;;;;;;5016072;28;20049;-68
2022/09/14 11:42:52;;;;;;;1.30;1.00;;;;;;;;;;5016041;28;20389;-68
2022/09/14 11:45:31;;;;;;;1.48;1.27;;;;;;;;;;5033254;28;20284;-68
2022/09/14 11:48:05;;;;;;;2.15;1.60;;;;;;;;;;5000599;28;20503;-69
2022/09/14 11:50:53;;;;;;;2.10;1.17;;;;;;;;;;5037718;23;20152;31
2022/09/14 11:53:20;;;;;;;5.65;1.30;;;;;;;;;;5012424;28;20084;-68
2022/09/14 11:55:48;;;;;;;2.88;1.38;;;;;;;;;;4980508;28;20085;-68
2022/09/14 11:58:23;;;;;;;5.00;1.60;;;;;;;;;;4980316;28;20046;-69
2022/09/14 12:01:04;;;;;;;3.00;1.80;;;;;;;;;;4996467;28;20499;-68
2022/09/14 12:03:52;;;;;;;4.25;2.10;;;;;;;;;;4976506;28;20058;-68
2022/09/14 12:06:30;;;;;;;2.58;1.70;;;;;;;;;;4993812;28;20066;-68
2022/09/14 12:09:12;;;;;;;6.93;1.92;;;;;;;;;;4993204;28;20050;-68
2022/09/14 12:11:39;;;;;;;4.15;1.10;;;;;;;;;;4993368;28;20468;-69
2022/09/14 12:14:30;;;;;;;2.88;1.45;;;;;;;;;;4976446;28;20050;-68
2022/09/14 12:17:16;;;;;;;2.58;1.20;;;;;;;;;;4977121;28;20112;-69
2022/09/14 12:20:30;;;;;;;5.15;1.75;;;;;;;;;;4978891;28;20046;-69
2022/09/14 12:23:35;;;;;;;5.82;3.20;;;;;;;;;;4993443;28;20054;-69
2022/09/14 12:26:05;;;;;;;4.32;1.52;;;;;;;;;;4993537;28;20053;-70
2022/09/14 12:28:34;;;;;;;3.35;2.28;;;;;;;;;;4993496;28;20054;-69
2022/09/14 12:31:01;;;;;;;4.88;1.70;;;;;;;;;;4993385;28;20047;-69
2022/09/14 12:33:31;;;;;;;7.38;1.58;;;;;;;;;;4993391;28;20054;-69
2022/09/14 12:36:09;;;;;;;5.18;1.45;;;;;;;;;;4993677;28;20456;-69
2022/09/14 12:38:36;;;;;;;3.20;1.40;;;;;;;;;;4993622;28;20054;-69
2022/09/14 12:41:09;;;;;;;4.18;1.55;;;;;;;;;;4993263;28;20061;-69
2022/09/14 12:43:36;;;;;;;2.45;1.30;;;;;;;;;;4992615;28;20050;-69
2022/09/14 12:46:18;;;;;;;4.20;1.20;;;;;;;;;;4993297;28;20054;-68
2022/09/14 12:48:47;;;;;;;3.40;1.23;;;;;;;;;;4993042;28;20050;-69
2022/09/14 12:51:27;;;;;;;4.07;1.63;;;;;;;;;;4992749;28;20076;-69
2022/09/14 12:53:56;;;;;;;2.80;1.30;;;;;;;;;;4993319;28;20205;-68
2022/09/14 12:56:35;;;;;;;3.67;1.70;;;;;;;;;;4993353;28;20058;-69
2022/09/14 12:59:09;;;;;;;2.78;1.40;;;;;;;;;;4976741;28;20050;-69
2022/09/14 13:02:02;;;;;;;3.95;2.20;;;;;;;;;;4992932;28;20085;-68
2022/09/14 13:04:31;;;;;;;4.72;1.83;;;;;;;;;;4976951;28;20058;-68
2022/09/14 13:07:01;;;;;;;4.57;1.80;;;;;;;;;;4993034;28;20108;-68
2022/09/14 13:09:29;;;;;;;4.90;1.98;;;;;;;;;;4975560;28;20063;-69
2022/09/14 13:11:57;;;;;;;4.63;2.05;;;;;;;;;;4975677;28;20050;-69
2022/09/14 13:14:29;;;;;;;2.30;1.92;;;;;;;;;;4959844;28;20055;-69
2022/09/14 13:16:57;;;;;;;3.45;1.55;;;;;;;;;;4976087;28;20105;-69
2022/09/14 13:19:25;;;;;;;4.85;2.08;;;;;;;;;;4959768;28;20497;-68
2022/09/14 13:21:54;;;;;;;3.03;1.58;;;;;;;;;;4992892;28;20046;-68
2022/09/14 13:24:41;;;;;;;3.67;1.70;;;;;;;;;;4976036;28;20572;-69
2022/09/14 13:27:20;;;;;;;4.22;2.15;;;;;;;;;;4960735;28;20501;-68
2022/09/14 13:29:47;;;;;;;2.55;2.05;;;;;;;;;;4976147;28;20046;-69
2022/09/14 13:32:17;;;;;;;3.83;1.95;;;;;;;;;;4992760;28;20055;-69
2022/09/14 13:34:44;;;;;;;8.27;2.00;;;;;;;;;;4975484;28;20430;-69
2022/09/14 13:37:13;;;;;;;3.65;2.20;;;;;;;;;;4992743;28;20050;-69
2022/09/14 13:39:40;;;;;;;4.18;2.47;;;;;;;;;;4975464;28;20101;-70
2022/09/14 13:42:08;;;;;;;5.10;2.42;;;;;;;;;;4975175;28;20054;-70
2022/09/14 13:44:40;;;;;;;5.20;2.70;;;;;;;;;;4975453;28;20050;-70
2022/09/14 13:47:08;;;;;;;;;;;;;;;;;;4976388;28;20057;-70
2022/09/14 13:49:35;;;;;;;6.50;2.10;;;;;;;;;;4992247;28;19992;-70
2022/09/14 13:52:17;;;;;;;5.18;2.00;;;;;;;;;;4959427;28;20050;-70
2022/09/14 13:54:45;;;;;;;3.92;1.85;;;;;;;;;;4995959;28;20053;-70
2022/09/14 13:57:17;;;;;;;2.13;1.85;;;;;;;;;;4996715;28;20046;-69
2022/09/14 14:00:18;;;;;;;4.63;1.60;;;;;;;;;;4996180;28;20054;-70
2022/09/14 14:03:00;;;;;;;2.60;1.50;;;;;;;;;;4996232;28;20101;-70
2022/09/14 14:05:32;;;;;;;3.72;1.00;;;;;;;;;;4978751;28;20141;-70
2022/09/14 14:08:01;;;;;;;1.70;1.20;;;;;;;;;;4962629;28;20054;-69
2022/09/14 14:10:36;;;;;;;4.65;1.52;;;;;;;;;;4995918;28;20559;-69
2022/09/14 14:13:03;;;;;;;1.48;1.10;;;;;;;;;;4962843;28;20552;-69
2022/09/14 14:15:40;;;;;;;2.63;1.25;;;;;;;;;;4996178;28;20050;-70
2022/09/14 14:18:38;;;;;;;2.13;1.50;;;;;;;;;;4995604;28;20050;-69
2022/09/14 14:21:09;;;;;;;2.65;1.40;;;;;;;;;;4980152;28;20054;-69
2022/09/14 14:23:37;;;;;;;2.17;1.35;;;;;;;;;;4992899;28;20035;-69
2022/09/14 14:26:26;;;;;;;1.73;1.38;;;;;;;;;;5000629;28;20162;-69
2022/09/14 14:28:53;;;;;;;1.52;1.42;;;;;;;;;;4962684;28;20085;-69
2022/09/14 14:31:21;;;;;;;3.67;1.15;;;;;;;;;;4978433;28;20640;-69
2022/09/14 14:33:52;;;;;;;2.58;1.35;;;;;;;;;;4995788;28;20133;-69
2022/09/14 14:36:18;;;;;;;4.03;1.50;;;;;;;;;;4995455;28;20046;-69
2022/09/14 14:38:46;;;;;;;2.88;1.30;;;;;;;;;;4995281;28;20301;-69
2022/09/14 14:41:19;;;;;;;1.48;1.23;;;;;;;;;;4995787;28;20539;-69
2022/09/14 14:43:46;;;;;;;3.55;1.10;;;;;;;;;;4995568;28;20517;-69
2022/09/14 14:46:13;;;;;;;3.08;1.20;;;;;;;;;;4978204;28;20054;-69
2022/09/14 14:48:40;;;;;;;2.97;1.20;;;;;;;;;;4978048;28;20097;-69
2022/09/14 14:51:11;;;;;;;3.17;1.17;;;;;;;;;;4995190;28;20046;-69
2022/09/14 14:53:38;;;;;;;3.90;1.15;;;;;;;;;;4962655;28;20101;-69
2022/09/14 14:56:05;;;;;;;2.53;1.50;;;;;;;;;;4995003;28;20050;-69
2022/09/14 14:58:31;;;;;;;2.30;1.00;;;;;;;;;;4994928;28;20113;-69
2022/09/14 15:01:09;;;;;;;3.13;1.50;;;;;;;;;;4995263;28;20145;-69
2022/09/14 15:03:36;;;;;;;1.48;1.10;;;;;;;;;;4995155;28;20100;-69
2022/09/14 15:06:21;;;;;;;2.42;1.02;;;;;;;;;;4994216;28;20489;-69
2022/09/14 15:08:53;;;;;;;2.90;1.00;;;;;;;;;;4994672;28;20394;-69
2022/09/14 15:11:20;;;;;;;1.25;1.10;;;;;;;;;;4995019;28;20047;-69
2022/09/14 15:13:47;;;;;;;1.05;0.95;;;;;;;;;;4977573;28;20070;-69
2022/09/14 15:16:14;;;;;;;2.15;1.20;;;;;;;;;;4994862;28;20406;-69